Time;durP1;ratioP1;P1;durP2;ratioP2;P2;SDS_P1;SDS_P2;PMS_P1;PMS_P2;Temp;Humidity;BMP_temperature;BMP_pressure;BME280_temperature;BME280_humidity;BME280_pressure;Samples;Min_cycle;Max_cycle;Signal;HPM_P1;HPM_P2
2023/11/20 00:00:12;;;;;;;24.25;3.50;;;11.20;99.90;;;;;;5046752;28;20090;-78
2023/11/20 00:02:42;;;;;;;18.83;4.05;;;11.20;99.90;;;;;;5046837;28;20294;-78
2023/11/20 00:05:08;;;;;;;24.90;4.53;;;11.20;99.90;;;;;;5030247;28;20370;-77
2023/11/20 00:07:34;;;;;;;20.65;3.47;;;11.20;99.90;;;;;;5046585;28;20031;-77
2023/11/20 00:10:00;;;;;;;24.95;3.70;;;11.20;99.90;;;;;;5030164;28;20224;-78
2023/11/20 00:12:26;;;;;;;26.58;3.80;;;11.20;99.90;;;;;;5046617;28;20034;-77
2023/11/20 00:14:52;;;;;;;23.75;3.75;;;11.20;99.90;;;;;;5046604;28;20305;-77
2023/11/20 00:17:17;;;;;;;23.42;3.75;;;11.20;99.90;;;;;;5046606;28;20033;-77
2023/11/20 00:19:45;;;;;;;19.40;3.75;;;11.20;99.90;;;;;;5047329;28;20042;-77
2023/11/20 00:22:11;;;;;;;27.10;4.10;;;11.20;99.90;;;;;;5047306;28;20052;-77
2023/11/20 00:24:37;;;;;;;22.35;4.13;;;11.20;99.90;;;;;;5029977;28;20029;-78
2023/11/20 00:27:04;;;;;;;21.85;3.17;;;11.20;99.90;;;;;;5046368;28;20021;-77
2023/11/20 00:29:30;;;;;;;26.05;4.50;;;11.20;99.90;;;;;;5046248;28;20069;-78
2023/11/20 00:31:56;;;;;;;27.23;3.90;;;11.20;99.90;;;;;;5046027;28;20071;-78
2023/11/20 00:34:22;;;;;;;20.23;3.92;;;11.20;99.90;;;;;;5045897;28;20100;-78
2023/11/20 00:36:47;;;;;;;22.80;4.15;;;11.20;99.90;;;;;;5046000;28;20041;-77
2023/11/20 00:39:13;;;;;;;24.95;4.25;;;11.20;99.90;;;;;;5029558;28;20463;-77
2023/11/20 00:41:39;;;;;;;23.15;3.72;;;11.20;99.90;;;;;;5046000;28;20194;-78
2023/11/20 00:44:06;;;;;;;31.85;5.13;;;11.20;99.90;;;;;;5046842;28;20267;-78
2023/11/20 00:46:32;;;;;;;19.70;4.22;;;11.20;99.90;;;;;;5046942;28;20214;-78
2023/11/20 00:48:58;;;;;;;24.67;4.35;;;11.20;99.90;;;;;;5046144;28;20037;-77
2023/11/20 00:51:25;;;;;;;20.95;3.25;;;11.10;99.90;;;;;;5029588;28;20043;-78
2023/11/20 00:53:51;;;;;;;21.17;3.05;;;11.10;99.90;;;;;;5045765;28;20093;-77
2023/11/20 00:56:18;;;;;;;23.45;3.35;;;11.10;99.90;;;;;;5029317;28;20040;-77
2023/11/20 00:58:44;;;;;;;17.85;4.07;;;11.10;99.90;;;;;;5046753;28;20075;-78
2023/11/20 01:01:09;;;;;;;18.60;4.00;;;11.10;99.90;;;;;;5046703;28;20032;-78
2023/11/20 01:03:35;;;;;;;19.35;3.47;;;11.10;99.90;;;;;;5045431;28;20029;-78
2023/11/20 01:06:04;;;;;;;20.65;3.25;;;11.10;99.90;;;;;;5028979;28;20035;-78
2023/11/20 01:08:30;;;;;;;19.42;3.97;;;11.10;99.90;;;;;;5045267;28;20029;-78
2023/11/20 01:10:55;;;;;;;17.33;2.78;;;11.10;99.90;;;;;;5029100;28;20187;-78
2023/11/20 01:13:21;;;;;;;19.23;3.05;;;11.10;99.90;;;;;;5045245;28;20030;-77
2023/11/20 01:15:47;;;;;;;20.02;4.22;;;11.00;99.90;;;;;;5028950;28;20029;-78
2023/11/20 01:18:14;;;;;;;15.15;2.92;;;11.00;99.90;;;;;;5028794;28;20064;-78
2023/11/20 01:20:40;;;;;;;17.02;2.58;;;11.00;99.90;;;;;;5045253;28;20026;-78
2023/11/20 01:23:06;;;;;;;13.63;2.20;;;11.10;99.90;;;;;;5046309;28;20032;-77
2023/11/20 01:25:32;;;;;;;20.13;2.78;;;11.10;99.90;;;;;;5045155;28;20093;-78
2023/11/20 01:27:58;;;;;;;17.92;3.75;;;11.10;99.90;;;;;;5045211;28;20028;-79
2023/11/20 01:30:25;;;;;;;12.07;2.50;;;11.10;99.90;;;;;;5045012;28;20025;-79
2023/11/20 01:32:51;;;;;;;23.67;3.28;;;11.00;99.90;;;;;;5046162;28;20217;-79
2023/11/20 01:35:17;;;;;;;14.90;3.20;;;10.90;99.90;;;;;;5045097;28;20033;-79
2023/11/20 01:37:43;;;;;;;12.02;1.92;;;10.70;99.90;;;;;;5012064;28;20032;-78
2023/11/20 01:40:12;;;;;;;12.75;1.90;;;10.60;99.90;;;;;;5044863;28;20029;-78
2023/11/20 01:42:38;;;;;;;10.75;1.88;;;10.60;99.90;;;;;;5028971;28;20075;-78
2023/11/20 01:45:04;;;;;;;12.75;2.03;;;10.50;99.90;;;;;;5044840;28;20017;-78
2023/11/20 01:47:29;;;;;;;18.23;2.15;;;10.60;99.90;;;;;;5045332;28;20187;-78
2023/11/20 01:49:55;;;;;;;12.30;2.20;;;10.60;99.90;;;;;;5044287;28;20108;-78
2023/11/20 01:52:22;;;;;;;11.10;2.33;;;10.50;99.90;;;;;;5028394;28;20029;-77
2023/11/20 01:54:48;;;;;;;9.18;1.80;;;10.50;99.90;;;;;;5045821;28;20095;-77
2023/11/20 01:57:13;;;;;;;20.73;2.75;;;10.50;99.90;;;;;;5045860;28;20100;-78
2023/11/20 01:59:39;;;;;;;14.40;2.72;;;10.50;99.90;;;;;;5045222;28;20029;-78
2023/11/20 02:02:05;;;;;;;19.48;2.63;;;10.60;99.90;;;;;;5044538;28;20033;-78
2023/11/20 02:04:32;;;;;;;18.52;2.72;;;10.60;99.90;;;;;;5045576;28;20022;-78
2023/11/20 02:06:59;;;;;;;21.67;3.38;;;10.60;99.90;;;;;;5028312;28;20148;-78
2023/11/20 02:09:25;;;;;;;14.63;2.55;;;10.60;99.90;;;;;;5045276;28;20040;-78
2023/11/20 02:11:50;;;;;;;19.98;2.92;;;10.50;99.90;;;;;;5045404;28;20029;-78
2023/11/20 02:14:16;;;;;;;18.38;2.92;;;10.50;99.90;;;;;;5044285;28;20021;-78
2023/11/20 02:16:42;;;;;;;17.92;3.08;;;10.50;99.90;;;;;;5044318;28;20041;-78
2023/11/20 02:19:12;;;;;;;17.65;2.55;;;10.50;99.90;;;;;;5044121;28;20033;-78
2023/11/20 02:21:37;;;;;;;19.05;3.17;;;10.40;99.90;;;;;;5044292;28;20029;-78
2023/11/20 02:24:04;;;;;;;23.90;3.15;;;10.40;99.90;;;;;;5044385;28;20295;-78
2023/11/20 02:26:32;;;;;;;11.10;2.22;;;10.40;99.90;;;;;;5028103;28;20223;-78
2023/11/20 02:29:04;;;;;;;18.05;2.17;;;10.40;99.90;;;;;;5045418;28;20022;-78
2023/11/20 02:31:31;;;;;;;20.58;2.55;;;10.30;99.90;;;;;;5045101;28;20021;-78
2023/11/20 02:34:00;;;;;;;10.85;1.77;;;10.30;99.90;;;;;;5027754;28;20021;-78
2023/11/20 02:36:25;;;;;;;13.73;2.97;;;10.30;99.90;;;;;;5044387;28;20052;-78
2023/11/20 02:38:51;;;;;;;12.98;2.40;;;10.20;99.90;;;;;;5044319;28;20299;-78
2023/11/20 02:41:17;;;;;;;11.50;2.28;;;10.20;99.90;;;;;;5011482;28;20083;-78
2023/11/20 02:43:43;;;;;;;18.58;2.45;;;10.20;99.90;;;;;;5044319;28;20032;-78
2023/11/20 02:46:09;;;;;;;17.63;2.65;;;10.20;99.90;;;;;;5027834;28;20030;-78
2023/11/20 02:48:35;;;;;;;14.05;2.85;;;10.10;99.90;;;;;;5027519;28;20199;-78
2023/11/20 02:51:03;;;;;;;17.20;3.05;;;10.10;99.90;;;;;;5043961;28;20335;-77
2023/11/20 02:53:28;;;;;;;9.43;2.20;;;10.00;99.90;;;;;;5044966;28;20048;-78
2023/11/20 02:55:56;;;;;;;12.40;2.15;;;10.00;99.90;;;;;;5027698;28;20029;-78
2023/11/20 02:58:22;;;;;;;14.73;2.35;;;10.00;99.90;;;;;;5027982;28;20018;-78
2023/11/20 03:00:48;;;;;;;9.27;1.80;;;10.00;99.90;;;;;;5030805;28;20029;-78
2023/11/20 03:03:15;;;;;;;12.00;2.00;;;9.90;99.90;;;;;;5047981;28;20103;-78
2023/11/20 03:05:42;;;;;;;12.13;2.47;;;9.90;99.90;;;;;;5031462;28;20148;-78
2023/11/20 03:08:08;;;;;;;15.45;2.03;;;9.90;99.90;;;;;;5014985;28;20083;-78
2023/11/20 03:10:33;;;;;;;14.65;2.25;;;9.80;99.90;;;;;;5031117;28;20049;-78
2023/11/20 03:12:59;;;;;;;11.25;3.10;;;9.90;99.90;;;;;;5047704;28;20029;-77
2023/11/20 03:15:25;;;;;;;9.43;2.15;;;9.90;99.90;;;;;;5048409;28;20033;-78
2023/11/20 03:17:50;;;;;;;15.38;2.92;;;9.90;99.90;;;;;;5031290;28;20037;-78
2023/11/20 03:20:16;;;;;;;9.95;2.58;;;9.90;99.90;;;;;;5047351;28;20190;-78
2023/11/20 03:22:42;;;;;;;13.30;2.30;;;9.80;99.90;;;;;;5030945;28;20252;-78
2023/11/20 03:25:08;;;;;;;12.60;2.17;;;9.80;99.90;;;;;;5014710;28;20026;-78
2023/11/20 03:27:33;;;;;;;17.25;2.40;;;9.80;99.90;;;;;;5048422;28;20048;-78
2023/11/20 03:29:59;;;;;;;7.97;2.22;;;9.70;99.90;;;;;;5047442;28;20214;-78
2023/11/20 03:32:25;;;;;;;14.25;2.45;;;9.70;99.90;;;;;;5014514;28;20113;-78
2023/11/20 03:34:50;;;;;;;10.35;1.95;;;9.70;99.90;;;;;;5048350;28;20025;-78
2023/11/20 03:37:16;;;;;;;10.27;1.80;;;9.60;99.90;;;;;;5047333;28;20061;-78
2023/11/20 03:39:42;;;;;;;12.68;2.45;;;9.60;99.90;;;;;;5047021;28;20068;-77
2023/11/20 03:42:07;;;;;;;13.10;2.13;;;9.40;99.90;;;;;;5030530;28;20021;-78
2023/11/20 03:44:33;;;;;;;10.98;2.42;;;9.40;99.90;;;;;;5047201;28;20108;-78
2023/11/20 03:46:58;;;;;;;10.82;1.95;;;9.30;99.90;;;;;;5048188;28;20110;-78
2023/11/20 03:49:24;;;;;;;11.30;2.20;;;9.30;99.90;;;;;;5047600;28;20064;-78
2023/11/20 03:51:50;;;;;;;11.25;2.20;;;9.30;99.90;;;;;;5014120;28;20040;-78
2023/11/20 03:54:15;;;;;;;11.35;2.30;;;9.30;99.90;;;;;;5046979;28;20111;-78
2023/11/20 03:56:41;;;;;;;12.48;2.10;;;9.30;99.90;;;;;;5030438;28;20120;-78
2023/11/20 03:59:07;;;;;;;9.52;2.00;;;9.20;99.90;;;;;;5030036;28;20034;-77
2023/11/20 04:01:33;;;;;;;9.38;2.08;;;9.20;99.90;;;;;;5014115;28;20075;-77
2023/11/20 04:03:58;;;;;;;17.52;2.55;;;9.10;99.90;;;;;;5013853;28;20028;-76
2023/11/20 04:06:24;;;;;;;11.13;2.25;;;9.10;99.90;;;;;;5046779;28;20033;-77
2023/11/20 04:08:50;;;;;;;8.57;2.65;;;9.00;99.90;;;;;;5046682;28;20025;-77
2023/11/20 04:11:17;;;;;;;11.68;2.22;;;9.00;99.90;;;;;;5046125;28;20036;-76
2023/11/20 04:13:43;;;;;;;13.07;2.38;;;9.00;99.90;;;;;;5030323;28;20071;-76
2023/11/20 04:16:09;;;;;;;11.38;1.90;;;9.00;99.90;;;;;;5029895;28;20025;-76
2023/11/20 04:18:35;;;;;;;14.75;2.65;;;9.00;99.90;;;;;;5030101;28;20021;-76
2023/11/20 04:21:00;;;;;;;16.73;2.65;;;9.00;99.90;;;;;;5013549;28;20044;-76
2023/11/20 04:23:27;;;;;;;6.93;1.83;;;9.00;99.90;;;;;;5046260;28;20025;-77
2023/11/20 04:25:52;;;;;;;11.35;2.92;;;9.00;99.90;;;;;;5046667;28;20021;-76
2023/11/20 04:28:18;;;;;;;13.77;2.47;;;8.90;99.90;;;;;;5046621;28;20044;-76
2023/11/20 04:30:44;;;;;;;10.68;2.25;;;8.90;99.90;;;;;;5046644;28;20064;-76
2023/11/20 04:33:09;;;;;;;10.80;2.13;;;8.90;99.90;;;;;;5047263;28;20025;-76
2023/11/20 04:35:35;;;;;;;14.98;2.08;;;8.90;99.90;;;;;;5046023;28;20033;-76
2023/11/20 04:38:01;;;;;;;18.42;2.65;;;8.90;99.90;;;;;;5029646;28;20030;-77
2023/11/20 04:40:27;;;;;;;12.35;2.28;;;8.90;99.90;;;;;;5046045;28;20021;-76
2023/11/20 04:42:53;;;;;;;11.32;1.92;;;8.90;99.90;;;;;;5029705;28;20033;-76
2023/11/20 04:45:18;;;;;;;11.40;2.10;;;9.00;99.90;;;;;;5046045;28;20239;-76
2023/11/20 04:47:44;;;;;;;8.82;1.88;;;9.00;99.90;;;;;;5029323;28;20018;-76
2023/11/20 04:50:10;;;;;;;10.77;1.95;;;9.00;99.90;;;;;;5045728;28;20249;-76
2023/11/20 04:52:38;;;;;;;14.52;2.00;;;9.00;99.90;;;;;;5045945;28;20056;-76
2023/11/20 04:55:04;;;;;;;13.05;2.08;;;9.00;99.90;;;;;;5045937;28;20092;-76
2023/11/20 04:57:30;;;;;;;9.25;2.17;;;9.00;99.90;;;;;;5045692;28;20029;-77
2023/11/20 04:59:57;;;;;;;10.02;2.10;;;9.00;99.90;;;;;;5045460;28;20025;-77
2023/11/20 05:02:26;;;;;;;9.77;1.90;;;9.10;99.90;;;;;;5046691;28;20034;-77
2023/11/20 05:04:52;;;;;;;10.73;2.25;;;9.10;99.90;;;;;;5045609;28;20029;-77
2023/11/20 05:07:18;;;;;;;7.80;1.88;;;9.10;99.90;;;;;;5045646;28;20068;-77
2023/11/20 05:09:43;;;;;;;9.30;2.38;;;9.10;99.90;;;;;;5046366;28;20029;-77
2023/11/20 05:12:09;;;;;;;9.15;2.30;;;9.20;99.90;;;;;;5028853;28;20044;-77
2023/11/20 05:14:35;;;;;;;11.15;2.63;;;9.10;99.90;;;;;;5028947;28;20075;-77
2023/11/20 05:17:00;;;;;;;11.77;2.10;;;9.00;99.90;;;;;;5028878;28;20025;-76
2023/11/20 05:19:26;;;;;;;6.00;1.80;;;9.00;99.90;;;;;;5028642;28;20198;-77
2023/11/20 05:21:52;;;;;;;11.88;2.15;;;8.90;99.90;;;;;;5028912;28;20033;-77
2023/11/20 05:24:18;;;;;;;12.68;2.10;;;8.90;99.90;;;;;;5044407;28;20025;-76
2023/11/20 05:26:43;;;;;;;8.98;2.33;;;8.90;99.90;;;;;;5045029;28;20349;-77
2023/11/20 05:29:11;;;;;;;9.50;1.80;;;8.80;99.90;;;;;;5045233;28;20368;-77
2023/11/20 05:31:37;;;;;;;10.60;2.47;;;8.80;99.90;;;;;;5045029;28;20021;-77
2023/11/20 05:34:03;;;;;;;9.48;2.22;;;8.70;99.90;;;;;;5045070;28;20103;-77
2023/11/20 05:36:29;;;;;;;9.27;1.92;;;8.70;99.90;;;;;;5045976;28;20037;-77
2023/11/20 05:38:55;;;;;;;9.63;1.55;;;8.60;99.90;;;;;;5044687;28;20021;-77
2023/11/20 05:41:21;;;;;;;7.03;2.13;;;8.60;99.90;;;;;;5045620;28;20033;-77
2023/11/20 05:43:47;;;;;;;10.27;2.30;;;8.60;99.90;;;;;;5044879;28;20033;-77
2023/11/20 05:46:15;;;;;;;7.03;2.72;;;8.50;99.90;;;;;;5044775;28;20021;-77
2023/11/20 05:48:41;;;;;;;7.63;3.40;;;8.60;99.90;;;;;;5028179;28;20052;-76
2023/11/20 05:51:07;;;;;;;18.92;3.78;;;8.70;99.90;;;;;;5044853;28;20042;-77
2023/11/20 05:53:32;;;;;;;12.40;4.18;;;8.80;99.90;;;;;;5028288;28;20026;-77
2023/11/20 05:55:58;;;;;;;13.20;3.10;;;8.90;99.90;;;;;;5044584;28;20022;-77
2023/11/20 05:58:25;;;;;;;9.07;2.95;;;8.90;99.90;;;;;;5044654;28;20070;-77
2023/11/20 06:00:51;;;;;;;6.03;2.45;;;8.90;99.90;;;;;;5044500;28;20104;-77
2023/11/20 06:03:17;;;;;;;10.90;2.28;;;8.80;99.90;;;;;;5044684;28;20029;-77
2023/11/20 06:05:42;;;;;;;9.70;2.22;;;8.80;99.90;;;;;;5045352;28;20037;-77
2023/11/20 06:08:08;;;;;;;7.20;2.40;;;8.80;99.90;;;;;;5044433;28;20178;-77
2023/11/20 06:10:34;;;;;;;4.53;1.80;;;8.80;99.90;;;;;;5045501;28;20025;-77
2023/11/20 06:13:00;;;;;;;7.65;2.30;;;8.80;99.90;;;;;;5045626;28;20061;-77
2023/11/20 06:15:26;;;;;;;5.20;2.30;;;8.90;99.90;;;;;;5028070;28;20037;-77
2023/11/20 06:17:52;;;;;;;6.70;2.08;;;8.90;99.90;;;;;;5045234;28;20037;-77
2023/11/20 06:20:18;;;;;;;6.15;1.85;;;9.00;99.90;;;;;;5028027;28;20048;-77
2023/11/20 06:22:44;;;;;;;10.35;2.42;;;9.00;99.90;;;;;;5028049;28;20036;-77
2023/11/20 06:25:12;;;;;;;7.57;2.17;;;9.00;99.90;;;;;;5044425;28;20202;-77
2023/11/20 06:27:37;;;;;;;7.80;2.33;;;9.10;99.90;;;;;;5028229;28;20025;-77
2023/11/20 06:30:04;;;;;;;8.88;2.10;;;9.10;99.90;;;;;;5044106;28;20079;-77
2023/11/20 06:32:29;;;;;;;6.95;2.38;;;9.10;99.90;;;;;;5044908;28;20092;-77
2023/11/20 06:34:55;;;;;;;7.78;1.90;;;9.10;99.90;;;;;;5013278;28;20198;-77
2023/11/20 06:37:21;;;;;;;9.80;3.30;;;9.10;99.90;;;;;;5031799;28;20040;-77
2023/11/20 06:39:47;;;;;;;10.35;2.58;;;9.10;99.90;;;;;;5048268;28;20027;-77
2023/11/20 06:42:13;;;;;;;5.47;2.28;;;9.10;99.90;;;;;;5031629;28;20025;-77
2023/11/20 06:44:39;;;;;;;8.13;2.92;;;9.10;99.90;;;;;;5048288;28;20060;-77
2023/11/20 06:47:07;;;;;;;7.10;2.05;;;9.20;99.90;;;;;;5048179;28;20306;-77
2023/11/20 06:49:36;;;;;;;7.78;2.20;;;9.10;99.90;;;;;;5031780;28;20164;-77
2023/11/20 06:52:03;;;;;;;9.00;2.45;;;9.20;99.90;;;;;;5015761;28;20039;-77
2023/11/20 06:54:29;;;;;;;12.77;2.67;;;9.30;99.90;;;;;;5031623;28;20025;-77
2023/11/20 06:56:54;;;;;;;9.25;2.38;;;9.30;99.90;;;;;;5048024;28;20037;-77
2023/11/20 06:59:20;;;;;;;6.35;2.10;;;9.40;99.90;;;;;;5047469;28;20036;-77
2023/11/20 07:01:46;;;;;;;6.65;2.78;;;9.40;99.90;;;;;;5031324;28;20021;-77
2023/11/20 07:04:15;;;;;;;7.10;2.38;;;9.40;99.90;;;;;;5031159;28;20033;-77
2023/11/20 07:06:43;;;;;;;7.15;2.53;;;9.50;99.90;;;;;;5048365;28;20029;-77
2023/11/20 07:09:14;;;;;;;9.32;2.40;;;9.40;99.90;;;;;;5047929;28;20182;-77
2023/11/20 07:11:42;;;;;;;12.00;3.50;;;9.40;99.90;;;;;;5047499;28;20325;-77
2023/11/20 07:14:08;;;;;;;9.98;2.83;;;9.40;99.90;;;;;;5048533;28;20060;-77
2023/11/20 07:16:41;;;;;;;7.35;2.17;;;9.40;99.90;;;;;;5048717;28;20033;-77
2023/11/20 07:19:07;;;;;;;10.48;2.78;;;9.40;99.90;;;;;;5031632;28;20361;-77
2023/11/20 07:21:34;;;;;;;9.25;3.75;;;9.50;99.90;;;;;;5047503;28;20039;-77
2023/11/20 07:24:01;;;;;;;9.38;3.17;;;9.50;99.90;;;;;;5047472;28;20030;-77
2023/11/20 07:26:27;;;;;;;12.95;4.32;;;9.50;99.90;;;;;;5047347;28;20025;-77
2023/11/20 07:28:53;;;;;;;8.40;2.30;;;9.40;99.90;;;;;;5047408;28;20044;-77
2023/11/20 07:31:28;;;;;;;5.13;1.88;;;9.40;99.90;;;;;;5048133;28;20033;-77
2023/11/20 07:33:54;;;;;;;9.07;1.88;;;9.30;99.90;;;;;;5030829;28;20056;-76
2023/11/20 07:36:20;;;;;;;8.23;1.95;;;9.30;99.90;;;;;;5047922;28;20029;-77
2023/11/20 07:38:47;;;;;;;8.73;2.25;;;9.30;99.90;;;;;;5030813;28;20021;-77
2023/11/20 07:41:13;;;;;;;10.07;2.47;;;9.30;99.90;;;;;;5047031;28;20037;-77
2023/11/20 07:43:39;;;;;;;6.85;2.03;;;9.30;99.90;;;;;;5047868;28;20066;-77
2023/11/20 07:46:06;;;;;;;11.30;2.53;;;9.30;99.90;;;;;;5029289;28;20311;-77
2023/11/20 07:48:32;;;;;;;7.38;2.35;;;9.30;99.90;;;;;;5046662;28;20291;-77
2023/11/20 07:51:00;;;;;;;8.05;1.75;;;9.40;99.90;;;;;;5047941;28;20068;-77
2023/11/20 07:53:26;;;;;;;5.93;2.15;;;9.40;99.90;;;;;;5047565;28;20278;-77
2023/11/20 07:55:52;;;;;;;7.82;2.50;;;9.50;99.90;;;;;;5046799;28;20061;-77
2023/11/20 07:58:18;;;;;;;11.30;2.55;;;9.40;99.90;;;;;;5047344;28;20090;-77
2023/11/20 08:00:44;;;;;;;8.40;2.92;;;9.50;99.90;;;;;;5047651;28;20029;-78
2023/11/20 08:03:09;;;;;;;10.18;2.80;;;9.60;99.90;;;;;;5046838;28;20033;-77
2023/11/20 08:05:35;;;;;;;7.07;3.03;;;9.60;99.90;;;;;;5029760;28;20021;-77
2023/11/20 08:08:01;;;;;;;6.10;3.10;;;9.70;99.90;;;;;;5030102;28;20305;-78
2023/11/20 08:10:26;;;;;;;8.85;2.80;;;9.70;99.90;;;;;;5030086;28;20091;-77
2023/11/20 08:12:52;;;;;;;12.48;3.17;;;9.70;99.90;;;;;;5047048;28;20030;-78
2023/11/20 08:15:18;;;;;;;10.10;3.15;;;9.60;99.90;;;;;;5029988;28;20041;-77
2023/11/20 08:17:44;;;;;;;14.13;3.60;;;9.70;99.90;;;;;;5030423;28;20047;-77
2023/11/20 08:20:10;;;;;;;12.02;4.00;;;9.80;99.90;;;;;;5046181;28;20040;-78
2023/11/20 08:22:37;;;;;;;11.32;3.08;;;9.80;99.90;;;;;;5013506;28;20017;-78
2023/11/20 08:25:03;;;;;;;10.70;3.33;;;9.90;99.90;;;;;;5046222;28;20290;-78
2023/11/20 08:27:29;;;;;;;12.00;4.10;;;10.00;99.90;;;;;;5029592;28;20083;-78
2023/11/20 08:29:55;;;;;;;10.20;3.25;;;10.00;99.90;;;;;;5045988;28;20190;-78
2023/11/20 08:32:21;;;;;;;10.05;3.40;;;10.00;99.90;;;;;;5029391;28;20041;-78
2023/11/20 08:34:46;;;;;;;8.93;3.40;;;10.10;99.90;;;;;;5046164;28;20072;-77
2023/11/20 08:37:13;;;;;;;10.55;4.22;;;10.10;99.90;;;;;;5046510;28;20036;-78
2023/11/20 08:39:39;;;;;;;10.90;3.90;;;10.10;99.90;;;;;;5045942;28;20041;-76
2023/11/20 08:42:05;;;;;;;9.95;3.35;;;10.20;99.90;;;;;;5013407;28;20053;-78
2023/11/20 08:44:32;;;;;;;11.13;4.07;;;10.10;99.90;;;;;;5046861;28;20048;-78
2023/11/20 08:46:59;;;;;;;6.38;3.40;;;10.10;99.90;;;;;;5029656;28;20128;-78
2023/11/20 08:49:26;;;;;;;12.98;4.88;;;10.20;99.90;;;;;;5046160;28;20075;-77
2023/11/20 08:51:52;;;;;;;9.05;3.80;;;10.20;99.90;;;;;;5013372;28;20029;-77
2023/11/20 08:54:18;;;;;;;13.48;3.50;;;10.20;99.90;;;;;;5046915;28;20021;-78
2023/11/20 08:56:46;;;;;;;6.85;3.15;;;10.30;99.90;;;;;;5046617;28;20048;-78
2023/11/20 08:59:14;;;;;;;13.43;3.55;;;10.40;99.90;;;;;;5029112;28;20033;-80
2023/11/20 09:01:40;;;;;;;16.38;3.60;;;10.50;99.90;;;;;;5029458;28;20032;-77
2023/11/20 09:04:06;;;;;;;8.20;3.75;;;10.60;99.90;;;;;;5046172;28;20195;-77
2023/11/20 09:06:32;;;;;;;12.73;3.97;;;10.70;99.90;;;;;;5029050;28;20032;-78
2023/11/20 09:08:58;;;;;;;14.10;4.10;;;10.70;99.90;;;;;;5046517;28;20037;-78
2023/11/20 09:11:24;;;;;;;11.35;4.03;;;10.80;99.90;;;;;;5046137;28;20041;-78
2023/11/20 09:13:52;;;;;;;21.27;13.95;;;10.80;99.90;;;;;;5046273;28;20271;-79
2023/11/20 09:16:20;;;;;;;12.93;3.33;;;10.90;99.90;;;;;;5045157;28;20282;-78
2023/11/20 09:18:47;;;;;;;8.75;3.20;;;10.90;99.90;;;;;;5045616;28;20083;-78
2023/11/20 09:21:13;;;;;;;9.85;2.60;;;11.00;99.90;;;;;;5044911;28;20184;-78
2023/11/20 09:23:38;;;;;;;9.82;2.38;;;11.00;99.90;;;;;;5046043;28;20032;-78
2023/11/20 09:26:08;;;;;;;9.40;2.40;;;11.10;99.90;;;;;;5028518;28;20045;-78
2023/11/20 09:28:34;;;;;;;13.00;3.95;;;11.10;99.90;;;;;;5045206;28;20033;-78
2023/11/20 09:30:59;;;;;;;9.25;2.08;;;11.10;99.90;;;;;;5044751;28;20105;-76
2023/11/20 09:33:25;;;;;;;6.45;1.80;;;11.20;99.90;;;;;;5044628;28;20048;-79
2023/11/20 09:35:51;;;;;;;7.95;2.10;;;11.20;99.90;;;;;;5044996;28;20044;-79
2023/11/20 09:38:17;;;;;;;6.60;2.40;;;11.30;99.90;;;;;;5045550;28;20017;-79
2023/11/20 09:40:44;;;;;;;9.88;1.90;;;11.30;99.90;;;;;;5044680;28;20036;-78
2023/11/20 09:43:09;;;;;;;4.05;1.40;;;11.30;99.90;;;;;;5044935;28;20025;-78
2023/11/20 09:45:39;;;;;;;4.53;1.98;;;11.30;99.90;;;;;;5028468;28;20040;-78
2023/11/20 09:48:06;;;;;;;6.38;1.65;;;11.40;99.90;;;;;;5045990;28;20037;-78
2023/11/20 09:50:32;;;;;;;5.03;1.40;;;11.40;99.90;;;;;;5028637;28;20243;-79
2023/11/20 09:52:59;;;;;;;5.50;1.52;;;11.50;99.90;;;;;;5044940;28;20029;-78
2023/11/20 09:55:27;;;;;;;9.15;3.83;;;11.60;99.90;;;;;;5045506;28;20104;-79
2023/11/20 09:57:53;;;;;;;6.50;1.42;;;11.70;99.90;;;;;;5045639;28;20032;-79
2023/11/20 10:00:22;;;;;;;4.82;1.45;;;11.70;99.90;;;;;;5045577;28;20021;-78
2023/11/20 10:02:47;;;;;;;10.50;1.92;;;11.70;99.90;;;;;;5012428;28;20025;-79
2023/11/20 10:05:44;;;;;;;5.90;1.48;;;11.70;99.90;;;;;;5044554;28;20084;-78
2023/11/20 10:08:10;;;;;;;3.35;1.45;;;11.70;99.90;;;;;;5012190;28;20038;-78
2023/11/20 10:10:36;;;;;;;6.53;1.77;;;11.70;99.90;;;;;;5043759;28;20029;-77
2023/11/20 10:13:04;;;;;;;9.40;1.60;;;11.70;99.90;;;;;;5027742;28;20040;-76
2023/11/20 10:15:30;;;;;;;8.02;1.70;;;11.70;99.90;;;;;;5044988;28;20248;-76
2023/11/20 10:17:55;;;;;;;6.22;1.30;;;11.70;99.90;;;;;;5044290;28;20029;-77
2023/11/20 10:20:21;;;;;;;5.32;1.17;;;11.70;99.90;;;;;;5044346;28;20039;-78
2023/11/20 10:22:47;;;;;;;5.90;1.20;;;11.70;99.90;;;;;;5044149;28;20278;-76
2023/11/20 10:25:13;;;;;;;8.48;1.58;;;11.80;99.90;;;;;;5044023;28;20022;-77
2023/11/20 10:27:39;;;;;;;7.97;2.22;;;11.80;99.90;;;;;;5027771;28;20063;-76
2023/11/20 10:30:09;;;;;;;5.07;1.45;;;11.90;99.90;;;;;;5027355;28;20029;-77
2023/11/20 10:32:36;;;;;;;6.63;1.25;;;11.90;99.90;;;;;;5044977;28;20044;-79
2023/11/20 10:35:13;;;;;;;5.78;1.20;;;11.90;99.90;;;;;;5027878;28;20154;-77
2023/11/20 10:37:51;;;;;;;6.90;1.90;;;11.90;99.90;;;;;;5044863;28;20076;-77
2023/11/20 10:40:18;;;;;;;5.40;1.20;;;12.00;99.90;;;;;;5044781;28;20025;-77
2023/11/20 10:42:43;;;;;;;5.30;0.82;;;12.10;99.90;;;;;;5044916;28;20084;-77
2023/11/20 10:45:09;;;;;;;5.43;1.80;;;12.20;99.90;;;;;;5045091;28;20022;-77
2023/11/20 10:47:35;;;;;;;4.45;0.90;;;12.20;99.90;;;;;;5044810;28;20057;-77
2023/11/20 10:50:01;;;;;;;3.88;1.20;;;12.10;99.90;;;;;;5027485;28;20049;-77
2023/11/20 10:52:29;;;;;;;3.03;0.98;;;12.10;99.90;;;;;;5044671;28;20349;-77
2023/11/20 10:54:54;;;;;;;4.93;1.73;;;12.00;99.90;;;;;;5043796;28;20088;-77
2023/11/20 10:57:20;;;;;;;3.10;0.90;;;12.00;99.90;;;;;;5010993;28;20029;-76
2023/11/20 10:59:46;;;;;;;5.93;1.52;;;12.10;99.90;;;;;;5010903;28;20132;-76
2023/11/20 11:02:17;;;;;;;5.85;1.70;;;12.10;99.90;;;;;;5045135;28;20037;-77
2023/11/20 11:04:43;;;;;;;10.52;3.55;;;12.20;99.90;;;;;;5027875;28;20100;-76
2023/11/20 11:07:11;;;;;;;5.05;1.10;;;12.30;99.90;;;;;;5044912;28;20021;-76
2023/11/20 11:09:36;;;;;;;4.57;2.08;;;12.20;99.90;;;;;;5043869;28;20084;-77
2023/11/20 11:12:02;;;;;;;3.00;1.00;;;12.20;99.90;;;;;;5027351;28;20155;-76
2023/11/20 11:14:28;;;;;;;5.13;1.20;;;12.20;99.90;;;;;;5027197;28;20029;-76
2023/11/20 11:17:00;;;;;;;4.20;1.10;;;12.20;99.90;;;;;;5011069;28;20029;-77
2023/11/20 11:19:29;;;;;;;4.10;1.10;;;12.20;99.90;;;;;;5059549;28;20033;-76
2023/11/20 11:22:01;;;;;;;5.20;1.23;;;12.20;99.90;;;;;;5028847;28;20261;-76
2023/11/20 11:24:31;;;;;;;3.85;0.90;;;12.20;99.90;;;;;;5047901;28;20198;-77
2023/11/20 11:27:15;;;;;;;5.38;1.42;;;12.20;99.90;;;;;;5048438;28;20089;-76
2023/11/20 11:29:43;;;;;;;2.10;1.00;;;12.20;99.90;;;;;;5047254;28;20040;-76
2023/11/20 11:32:15;;;;;;;3.92;1.00;;;12.10;99.90;;;;;;5047300;28;20052;-78
2023/11/20 11:35:00;;;;;;;4.20;1.80;;;12.20;99.90;;;;;;5047160;28;20113;-77
2023/11/20 11:37:40;;;;;;;4.22;1.15;;;12.20;99.90;;;;;;5047811;28;20029;-77
2023/11/20 11:40:41;;;;;;;5.85;1.20;;;12.20;99.90;;;;;;5047958;28;20029;-77
2023/11/20 11:43:17;;;;;;;6.18;1.17;;;12.20;99.90;;;;;;5034139;28;20021;-77
2023/11/20 11:45:44;;;;;;;6.63;2.13;;;12.20;99.90;;;;;;5030868;28;20052;-77
2023/11/20 11:48:10;;;;;;;7.22;1.45;;;12.20;99.90;;;;;;5014236;28;20037;-77
2023/11/20 11:50:36;;;;;;;3.95;1.17;;;12.20;99.90;;;;;;5030392;28;20057;-77
2023/11/20 11:53:03;;;;;;;4.70;1.73;;;12.20;99.90;;;;;;5030425;28;20021;-77
2023/11/20 11:55:31;;;;;;;7.60;1.48;;;12.20;99.90;;;;;;5030720;28;20294;-77
2023/11/20 11:58:03;;;;;;;2.85;0.88;;;12.10;99.90;;;;;;5013349;28;20064;-77
2023/11/20 12:00:30;;;;;;;4.72;1.00;;;12.10;99.90;;;;;;5047495;28;20040;-76
2023/11/20 12:02:57;;;;;;;3.70;0.90;;;12.20;99.90;;;;;;5030358;28;20101;-77
2023/11/20 12:05:24;;;;;;;5.72;1.13;;;12.20;99.90;;;;;;5030038;28;20225;-76
2023/11/20 12:07:53;;;;;;;2.63;1.20;;;12.30;99.90;;;;;;5046365;28;20036;-77
2023/11/20 12:10:56;;;;;;;5.28;1.00;;;12.30;99.90;;;;;;5046378;28;20026;-78
2023/11/20 12:13:22;;;;;;;6.57;1.85;;;12.50;99.90;;;;;;5045788;28;20044;-79
2023/11/20 12:15:50;;;;;;;5.43;1.00;;;12.60;99.90;;;;;;5046001;28;20034;-78
2023/11/20 12:18:18;;;;;;;3.42;1.52;;;12.60;99.90;;;;;;5046478;28;20061;-78
2023/11/20 12:20:51;;;;;;;3.33;1.10;;;12.50;99.90;;;;;;5045776;28;20030;-77
2023/11/20 12:23:22;;;;;;;5.18;1.02;;;12.30;99.90;;;;;;5047035;28;20034;-77
2023/11/20 12:25:51;;;;;;;5.97;1.45;;;12.20;99.90;;;;;;5046094;28;20025;-77
2023/11/20 12:28:16;;;;;;;5.50;1.40;;;12.20;99.90;;;;;;5045859;28;20029;-77
2023/11/20 12:30:42;;;;;;;3.67;1.20;;;12.30;99.90;;;;;;5046748;28;20075;-77
2023/11/20 12:33:08;;;;;;;5.65;1.10;;;12.80;99.90;;;;;;5045210;28;20021;-77
2023/11/20 12:35:34;;;;;;;5.75;1.40;;;13.10;99.90;;;;;;5046678;28;20030;-77
2023/11/20 12:38:00;;;;;;;5.55;2.10;;;12.80;99.90;;;;;;5046778;28;20230;-77
2023/11/20 12:40:26;;;;;;;3.70;1.20;;;12.60;99.90;;;;;;5046499;28;20029;-76
2023/11/20 12:42:52;;;;;;;4.38;1.00;;;12.60;99.90;;;;;;5045546;28;20037;-79